Terminal Aerodrome Forecast
Issued by NWS

Home | Current Version | Previous Version | Text Only | Print | Product List | Glossary On
Versions: 1 2 3 4 5 6 7 8 9 10 11 12 13 14 15 16 17 18 19 20 21 22 23 24 25 26 27 28
000
FTUS42 KFFC 231122
TAFRYY
TAF
KRYY 231122Z 2312/2412 30010G20KT P6SM BKN005 OVC015
      TEMPO 2312/2315 3SM -RADZ SCT007 BKN015 OVC025
     FM231500 31017G30KT P6SM SCT008 BKN015 OVC030
     FM232000 31017G30KT P6SM SCT015 BKN025
     FM240400 31015G25KT P6SM BKN015
     FM240900 31010KT P6SM SCT015=

USA.gov is the U.S. government's official web portal to all federal, state and local government web resources and services.